PST,Max TemperatureF,Mean TemperatureF,Min TemperatureF,Max Dew PointF,MeanDew PointF,Min DewpointF,Max Humidity, Mean Humidity, Min Humidity, Max Sea Level PressureIn, Mean Sea Level PressureIn, Min Sea Level PressureIn, Max VisibilityMiles, Mean VisibilityMiles, Min VisibilityMiles, Max Wind SpeedMPH, Mean Wind SpeedMPH, Max Gust SpeedMPH,PrecipitationIn, CloudCover, Events, WindDirDegrees
2012-11-1,70,64,58,57,55,51,93,73,53,30.04,30.01,30.00,10,9,4,8,1,9,0.17,5,Rain,180
2012-11-2,70,60,50,53,51,48,96,74,52,30.09,30.04,30.01,10,7,2,9,3,13,0.00,0,,306
2012-11-3,73,61,48,53,50,46,93,70,46,30.16,30.11,30.06,10,9,5,10,1,26,0.00,0,,341
2012-11-4,75,62,49,54,51,47,93,70,46,30.22,30.17,30.14,10,9,5,6,0,9,0.00,0,,340
2012-11-5,78,64,49,56,52,47,96,69,42,30.19,30.13,30.05,10,7,1,4,0,,0.01,0,,5
2012-11-6,79,64,49,55,52,47,94,81,42,30.11,30.06,29.99,10,6,1,6,0,14,0.00,0,,310
2012-11-7,74,61,48,57,51,46,100,82,46,30.03,29.97,29.87,10,6,0,12,3,14,0.00,1,Fog,189
2012-11-8,60,54,48,48,42,36,83,70,42,29.93,29.88,29.84,10,10,4,22,10,28,0.06,2,Rain,212
2012-11-9,57,49,41,40,37,30,89,69,38,29.97,29.93,29.91,10,10,10,8,4,12,0.00,2,,169
2012-11-10,58,47,36,39,35,30,93,68,36,30.27,30.11,29.97,10,10,5,9,2,12,0.00,0,,184
2012-11-11,59,47,34,36,34,31,93,71,39,30.40,30.35,30.27,10,10,5,7,1,12,0.00,0,,348
2012-11-12,62,49,36,39,35,30,89,65,32,30.40,30.34,30.27,10,9,4,12,2,16,0.00,0,,355
2012-11-13,64,51,37,42,38,34,93,68,41,30.29,30.20,30.12,10,10,8,9,1,10,0.00,0,,339
2012-11-14,70,56,41,45,42,39,90,70,35,30.16,30.09,30.04,10,10,6,6,2,9,0.00,0,,3
2012-11-15,64,52,39,48,43,37,93,77,50,30.06,30.02,29.97,10,6,2,6,0,9,0.00,0,,150
2012-11-16,64,54,44,54,48,41,94,84,62,30.03,29.98,29.91,10,5,2,10,1,16,0.02,7,Rain,41
2012-11-17,62,59,55,57,54,49,94,88,70,30.01,29.91,29.84,10,5,1,18,7,28,0.50,7,Rain,177
2012-11-18,62,55,48,54,47,43,94,78,53,30.19,30.10,30.00,10,9,3,10,4,15,0.13,4,Rain,194
2012-11-19,66,59,51,50,48,46,89,70,50,30.26,30.20,30.17,10,10,10,10,2,14,T,2,,156
2012-11-20,68,61,53,55,50,46,94,71,55,30.17,30.09,30.03,10,9,4,16,7,24,T,6,Rain,154
2012-11-21,64,60,55,55,53,46,94,89,70,30.19,30.12,30.05,10,4,0,13,5,17,0.28,6,Fog-Rain,138
2012-11-22,64,55,45,47,43,40,93,74,50,30.26,30.21,30.18,10,10,2,12,4,14,0.00,0,,330
2012-11-23,65,52,39,49,42,37,93,86,54,30.30,30.24,30.18,10,4,0,8,1,10,0.00,1,Fog,332
2012-11-24,66,53,39,48,41,37,100,88,50,30.21,30.15,30.04,10,3,0,7,0,9,0.00,1,Fog,300
2012-11-25,65,52,38,47,41,37,100,88,52,30.04,30.00,29.93,10,4,0,6,0,10,0.00,0,Fog,335
2012-11-26,64,51,38,49,42,37,93,85,56,30.08,30.03,29.98,10,5,0,8,0,10,0.00,0,Fog,330
2012-11-27,62,51,40,49,44,39,100,89,62,30.14,30.07,30.02,10,2,0,5,0,8,0.00,2,Fog,133
2012-11-28,60,54,48,54,50,46,93,85,72,30.06,29.95,29.86,10,6,2,26,6,40,0.45,6,Rain,138
2012-11-29,62,58,54,56,52,49,90,80,65,30.07,29.99,29.88,10,9,4,18,9,26,0.02,5,Rain,156
2012-11-30,62,61,59,57,55,52,94,88,77,30.02,29.89,29.78,10,6,2,25,11,35,1.57,7,Rain,174